Time;durP1;ratioP1;P1;durP2;ratioP2;P2;SDS_P1;SDS_P2;PMS_P1;PMS_P2;Temp;Humidity;BMP_temperature;BMP_pressure;BME280_temperature;BME280_humidity;BME280_pressure;Samples;Min_cycle;Max_cycle;Signal;HPM_P1;HPM_P2
2021/07/17 00:02:00;;;;;;;18.92;6.28;;;;;;;16.72;85.86;95388.73;1787514;80;21010;-59
2021/07/17 00:04:28;;;;;;;11.60;6.25;;;;;;;16.75;85.93;95388.59;1787527;80;21022;-59
2021/07/17 00:06:55;;;;;;;8.30;5.75;;;;;;;16.76;85.82;95394.33;1786856;80;21517;-59
2021/07/17 00:09:23;;;;;;;7.85;6.20;;;;;;;16.76;86.47;95394.33;1787142;80;21023;-59
2021/07/17 00:11:49;;;;;;;11.50;6.20;;;;;;;16.76;86.83;95400.52;1787254;80;20982;-59
2021/07/17 00:14:16;;;;;;;9.75;6.05;;;;;;;16.77;86.77;95406.70;1786792;80;21602;-59
2021/07/17 00:16:43;;;;;;;10.10;5.97;;;;;;;16.75;86.20;95398.77;1787079;80;21015;-59
2021/07/17 00:19:12;;;;;;;10.93;5.83;;;;;;;16.79;86.10;95403.54;1787190;79;21489;-59
2021/07/17 00:21:39;;;;;;;19.02;6.15;;;;;;;16.84;86.31;95401.05;1787032;80;21007;-59
2021/07/17 00:24:06;;;;;;;11.45;6.90;;;;;;;16.84;86.21;95397.53;1786921;80;21034;-59
2021/07/17 00:26:32;;;;;;;8.88;6.03;;;;;;;16.85;86.43;95403.24;1786931;80;21141;-59
2021/07/17 00:28:59;;;;;;;14.93;6.53;;;;;;;16.81;85.90;95403.00;1786670;80;21023;-59
2021/07/17 00:31:25;;;;;;;9.55;6.33;;;;;;;16.80;85.75;95402.59;1787239;80;21016;-59
2021/07/17 00:33:54;;;;;;;10.38;6.20;;;;;;;16.79;85.96;95402.20;1787396;80;21512;-59
2021/07/17 00:36:20;;;;;;;12.45;6.50;;;;;;;16.81;85.86;95400.34;1787341;80;20999;-59
2021/07/17 00:38:47;;;;;;;14.35;6.45;;;;;;;16.78;85.64;95398.69;1786856;80;21055;-59
2021/07/17 00:41:15;;;;;;;9.45;6.42;;;;;;;16.72;86.20;95390.92;1787001;80;21023;-59
2021/07/17 00:43:42;;;;;;;14.00;6.65;;;;;;;16.75;86.52;95392.11;1786522;80;21002;-59
2021/07/17 00:46:09;;;;;;;9.40;5.83;;;;;;;16.71;86.14;95393.67;1787536;80;20967;-59
2021/07/17 00:48:38;;;;;;;9.88;6.67;;;;;;;16.70;85.86;95392.78;1787330;80;21018;-59
2021/07/17 00:51:06;;;;;;;14.85;6.67;;;;;;;16.65;85.63;95390.33;1787132;80;21041;-59
2021/07/17 00:53:33;;;;;;;9.68;6.00;;;;;;;16.64;86.20;95384.61;1787234;80;21014;-59
2021/07/17 00:56:01;;;;;;;10.60;6.58;;;;;;;16.60;86.46;95378.16;1787263;80;20947;-59
2021/07/17 00:58:31;;;;;;;11.48;6.58;;;;;;;16.56;86.70;95373.92;1786732;80;21026;-59
2021/07/17 01:00:58;;;;;;;11.15;6.80;;;;;;;16.57;86.63;95372.98;1787127;80;21015;-59
2021/07/17 01:03:28;;;;;;;18.25;6.37;;;;;;;16.59;86.40;95367.13;1787041;80;21022;-59
2021/07/17 01:05:55;;;;;;;10.55;6.05;;;;;;;16.61;86.38;95362.13;1787163;80;21022;-59
2021/07/17 01:08:22;;;;;;;12.40;6.60;;;;;;;16.58;86.19;95362.27;1787217;80;20992;-59
2021/07/17 01:10:49;;;;;;;11.68;6.90;;;;;;;16.50;86.82;95362.20;1787319;80;21030;-59
2021/07/17 01:13:16;;;;;;;11.40;6.40;;;;;;;16.47;86.69;95365.88;1787096;80;20995;-59
2021/07/17 01:15:42;;;;;;;11.65;6.30;;;;;;;16.44;86.69;95363.36;1789016;80;21508;-58
2021/07/17 01:18:09;;;;;;;8.10;5.40;;;;;;;16.40;87.25;95354.66;1795493;80;21074;-59
2021/07/17 01:20:38;;;;;;;7.80;6.42;;;;;;;16.41;86.77;95359.50;1795746;80;21054;-59
2021/07/17 01:23:06;;;;;;;10.45;7.15;;;;;;;16.40;86.81;95365.75;1795216;80;21015;-59
2021/07/17 01:25:34;;;;;;;13.40;7.22;;;;;;;16.44;86.69;95356.70;1795462;80;21006;-59
2021/07/17 01:28:02;;;;;;;10.95;6.70;;;;;;;16.53;86.70;95356.73;1795319;80;21456;-59
2021/07/17 01:30:34;;;;;;;9.55;5.40;;;;;;;16.55;86.55;95357.53;1795478;80;21074;-59
2021/07/17 01:33:03;;;;;;;6.87;5.95;;;;;;;16.47;85.97;95352.55;1795629;80;21010;-59
2021/07/17 01:35:29;;;;;;;10.93;6.25;;;;;;;16.43;85.96;95355.84;1795629;80;20993;-59
2021/07/17 01:37:56;;;;;;;12.68;6.40;;;;;;;16.39;86.41;95349.38;1795063;80;21042;-59
2021/07/17 01:40:23;;;;;;;7.55;6.12;;;;;;;16.43;86.57;95342.52;1795523;80;21040;-59
2021/07/17 01:42:54;;;;;;;14.07;7.22;;;;;;;16.36;86.29;95340.21;1795283;80;21536;-59
2021/07/17 01:45:38;;;;;;;12.90;5.58;;;;;;;16.39;86.80;95338.26;1795517;80;20998;-59
2021/07/17 01:48:09;;;;;;;9.95;5.28;;;;;;;16.41;86.33;95336.40;1785960;80;21500;-59
2021/07/17 01:50:37;;;;;;;9.30;6.05;;;;;;;16.40;86.16;95340.45;1795458;80;21088;-59
2021/07/17 01:53:06;;;;;;;12.43;6.60;;;;;;;16.37;86.05;95336.13;1795672;80;21070;-59
2021/07/17 01:55:33;;;;;;;8.83;6.08;;;;;;;16.43;86.60;95332.34;1795479;80;20989;-59
2021/07/17 01:58:00;;;;;;;9.05;5.85;;;;;;;16.41;86.07;95335.54;1795341;80;21499;-58
2021/07/17 02:00:28;;;;;;;7.42;6.33;;;;;;;16.33;86.12;95337.66;1795099;80;21114;-59
2021/07/17 02:02:55;;;;;;;8.70;6.15;;;;;;;16.36;86.64;95341.06;1795763;80;20990;-59
2021/07/17 02:05:25;;;;;;;11.00;6.05;;;;;;;16.35;86.49;95335.33;1795302;80;20987;-59
2021/07/17 02:07:53;;;;;;;6.62;6.03;;;;;;;16.41;86.61;95331.07;1795493;80;20975;-59
2021/07/17 02:10:25;;;;;;;11.15;6.05;;;;;;;16.36;86.36;95330.42;1795422;80;21063;-59
2021/07/17 02:13:11;;;;;;;10.75;5.92;;;;;;;16.30;86.09;95322.69;1795321;80;21010;-59
2021/07/17 02:15:48;;;;;;;11.30;6.72;;;;;;;16.25;85.85;95326.03;1794025;80;21074;-58
2021/07/17 02:18:20;;;;;;;11.45;6.40;;;;;;;16.21;85.98;95320.47;1786190;80;21580;-59
2021/07/17 02:20:46;;;;;;;9.63;5.22;;;;;;;16.17;86.40;95329.51;1786553;80;21070;-59
2021/07/17 02:23:13;;;;;;;9.65;5.80;;;;;;;16.10;85.70;95330.27;1786915;80;21019;-59
2021/07/17 02:25:40;;;;;;;8.98;5.20;;;;;;;16.08;86.03;95332.60;1786924;80;21014;-59
2021/07/17 02:28:07;;;;;;;10.43;6.10;;;;;;;16.09;86.20;95326.33;1787067;80;21007;-59
2021/07/17 02:30:34;;;;;;;8.83;6.17;;;;;;;16.09;86.06;95323.67;1786821;80;21086;-59
2021/07/17 02:33:01;;;;;;;13.30;6.30;;;;;;;16.14;86.38;95319.00;1754403;80;21512;-58
2021/07/17 02:35:27;;;;;;;11.22;6.15;;;;;;;16.13;86.10;95330.60;1786813;80;20995;-59
2021/07/17 02:37:54;;;;;;;9.38;6.22;;;;;;;16.08;86.17;95308.65;1787080;80;21090;-58
2021/07/17 02:40:21;;;;;;;10.08;5.87;;;;;;;16.03;85.97;95314.61;1786730;80;20999;-59
2021/07/17 02:42:47;;;;;;;10.38;5.83;;;;;;;15.98;85.99;95313.52;1787072;80;20947;-59
2021/07/17 02:45:14;;;;;;;11.20;5.55;;;;;;;15.94;86.48;95321.22;1787126;80;20991;-59
2021/07/17 02:47:41;;;;;;;9.25;6.35;;;;;;;15.92;86.36;95311.96;1787088;80;21461;-59
2021/07/17 02:50:09;;;;;;;10.18;6.58;;;;;;;15.97;87.05;95318.42;1787229;80;21038;-59
2021/07/17 02:52:36;;;;;;;11.55;6.35;;;;;;;15.97;86.73;95323.73;1787150;80;20994;-59
2021/07/17 02:55:05;;;;;;;13.35;6.00;;;;;;;15.96;86.71;95327.34;1786805;80;21003;-59
2021/07/17 02:57:32;;;;;;;9.88;6.45;;;;;;;15.95;86.38;95322.94;1787054;80;21117;-59
2021/07/17 02:59:59;;;;;;;9.45;6.10;;;;;;;15.97;86.66;95320.60;1786828;80;21003;-59
2021/07/17 03:02:27;;;;;;;10.10;6.62;;;;;;;16.03;86.68;95322.16;1787114;80;20979;-59
2021/07/17 03:04:54;;;;;;;10.85;6.05;;;;;;;16.06;86.50;95321.16;1787133;80;21048;-59
2021/07/17 03:07:20;;;;;;;8.58;5.87;;;;;;;16.01;86.13;95323.54;1787025;80;21493;-58
2021/07/17 03:09:46;;;;;;;11.93;6.42;;;;;;;15.96;86.20;95327.34;1786979;80;20939;-59
2021/07/17 03:12:14;;;;;;;16.57;6.80;;;;;;;16.03;86.50;95323.92;1786967;80;21090;-59
2021/07/17 03:14:41;;;;;;;7.55;5.72;;;;;;;16.09;86.45;95331.18;1786638;80;21026;-59
2021/07/17 03:17:07;;;;;;;12.00;6.60;;;;;;;16.10;86.43;95343.58;1791329;80;21134;-59
2021/07/17 03:19:34;;;;;;;7.47;6.55;;;;;;;16.11;87.10;95342.63;1795459;80;21487;-59
2021/07/17 03:22:04;;;;;;;10.28;6.05;;;;;;;16.19;87.09;95343.62;1795093;80;21090;-59
2021/07/17 03:24:30;;;;;;;15.30;7.33;;;;;;;16.26;87.09;95348.22;1795054;80;20979;-59
2021/07/17 03:26:57;;;;;;;11.03;7.10;;;;;;;16.34;87.79;95340.73;1795090;80;21050;-59
2021/07/17 03:29:24;;;;;;;11.90;6.60;;;;;;;16.48;88.07;95342.77;1795325;80;21524;-59
2021/07/17 03:31:51;;;;;;;12.40;7.40;;;;;;;16.64;88.04;95343.33;1795637;80;21109;-59
2021/07/17 03:34:17;;;;;;;10.55;6.92;;;;;;;16.75;87.89;95341.48;1795428;80;20971;-59
2021/07/17 03:36:44;;;;;;;9.95;6.15;;;;;;;16.93;87.74;95345.59;1794950;80;21009;-59
2021/07/17 03:39:10;;;;;;;9.85;6.97;;;;;;;16.99;87.12;95344.84;1795485;80;20990;-59
2021/07/17 03:41:37;;;;;;;12.23;7.00;;;;;;;17.11;86.88;95341.17;1795139;80;21098;-59
2021/07/17 03:44:10;;;;;;;9.15;7.05;;;;;;;17.16;86.71;95344.04;1795321;80;21497;-59
2021/07/17 03:46:36;;;;;;;9.90;8.70;;;;;;;17.24;86.97;95348.52;1795555;80;20990;-59
2021/07/17 03:49:03;;;;;;;14.15;9.25;;;;;;;17.36;87.14;95347.06;1795718;80;20990;-59
2021/07/17 03:51:30;;;;;;;11.80;8.90;;;;;;;17.54;86.52;95342.62;1795252;80;21006;-59
2021/07/17 03:53:57;;;;;;;12.95;9.00;;;;;;;17.67;86.31;95344.20;1795357;80;21029;-59
2021/07/17 03:56:24;;;;;;;14.18;10.08;;;;;;;17.74;85.91;95347.81;1795099;80;20975;-59
2021/07/17 03:58:50;;;;;;;14.33;9.98;;;;;;;17.83;85.77;95349.64;1795195;80;21021;-59
2021/07/17 04:01:18;;;;;;;16.75;10.93;;;;;;;17.85;85.10;95349.10;1795039;80;21027;-59
2021/07/17 04:03:47;;;;;;;17.80;11.90;;;;;;;17.80;85.22;95348.00;1794221;80;21556;-59
2021/07/17 04:06:15;;;;;;;22.32;12.65;;;;;;;17.94;85.86;95349.95;1795158;80;21555;-59
2021/07/17 04:08:43;;;;;;;19.52;11.63;;;;;;;18.11;85.53;95353.09;1795281;80;21026;-59
2021/07/17 04:11:10;;;;;;;17.48;12.13;;;;;;;18.16;85.38;95351.89;1795304;80;21042;-59
2021/07/17 04:13:37;;;;;;;18.92;11.00;;;;;;;18.24;85.27;95354.64;1795392;80;21039;-59
2021/07/17 04:16:04;;;;;;;14.60;10.78;;;;;;;18.35;85.17;95346.95;1795329;80;21006;-59
2021/07/17 04:18:30;;;;;;;21.85;12.00;;;;;;;18.44;84.91;95344.23;1787156;80;20999;-59
2021/07/17 04:20:57;;;;;;;21.23;12.05;;;;;;;18.48;84.24;95346.67;1787488;80;21058;-59
2021/07/17 04:23:24;;;;;;;16.62;10.28;;;;;;;18.48;84.02;95343.14;1786978;80;21007;-59
2021/07/17 04:25:51;;;;;;;16.10;8.93;;;;;;;18.64;84.66;95351.19;1786862;80;21098;-59
2021/07/17 04:28:18;;;;;;;14.53;8.40;;;;;;;18.82;84.95;95352.88;1787276;80;21014;-59
2021/07/17 04:30:44;;;;;;;12.20;7.35;;;;;;;18.96;84.67;95357.00;1786830;80;20983;-59
2021/07/17 04:33:11;;;;;;;11.53;7.83;;;;;;;19.06;84.37;95350.67;1787398;80;20979;-59
2021/07/17 04:35:37;;;;;;;9.70;7.17;;;;;;;19.18;84.12;95354.48;1787158;80;21015;-59
2021/07/17 04:38:04;;;;;;;7.87;6.62;;;;;;;19.28;83.81;95356.13;1787075;80;21019;-59
2021/07/17 04:40:30;;;;;;;16.73;8.18;;;;;;;19.35;83.60;95358.41;1787158;80;21018;-59
2021/07/17 04:42:57;;;;;;;19.62;8.80;;;;;;;19.42;83.50;95357.56;1787005;80;21007;-59
2021/07/17 04:45:24;;;;;;;13.38;8.30;;;;;;;19.54;83.33;95360.02;1787236;80;21489;-59
2021/07/17 04:47:50;;;;;;;10.98;7.53;;;;;;;19.58;82.30;95361.09;1786787;80;21588;-59
2021/07/17 04:50:18;;;;;;;10.72;8.18;;;;;;;19.64;82.42;95359.87;1787095;80;21500;-59
2021/07/17 04:52:44;;;;;;;13.22;7.20;;;;;;;19.70;82.15;95360.02;1786910;80;21023;-59
2021/07/17 04:55:11;;;;;;;11.88;7.67;;;;;;;19.76;82.17;95362.36;1787274;80;20995;-59
2021/07/17 04:57:40;;;;;;;9.83;7.25;;;;;;;19.82;81.68;95350.78;1787175;80;21034;-59
2021/07/17 05:00:08;;;;;;;15.23;7.30;;;;;;;19.89;81.41;95352.16;1787141;80;20991;-59
2021/07/17 05:02:50;;;;;;;14.38;7.40;;;;;;;19.99;81.36;95352.96;1787136;80;21556;-59
2021/07/17 05:05:21;;;;;;;12.28;7.15;;;;;;;20.04;81.39;95352.20;1787297;80;20970;-59
2021/07/17 05:07:50;;;;;;;11.12;7.03;;;;;;;20.09;81.12;95356.81;1787091;80;21002;-59
2021/07/17 05:10:19;;;;;;;11.75;6.53;;;;;;;20.15;80.94;95355.09;1787236;80;21031;-59
2021/07/17 05:12:46;;;;;;;11.43;6.53;;;;;;;20.06;79.78;95356.52;1787152;80;21054;-59
2021/07/17 05:15:15;;;;;;;10.23;6.95;;;;;;;20.02;80.13;95354.11;1786759;80;21072;-59
2021/07/17 05:17:42;;;;;;;15.08;7.22;;;;;;;20.13;81.06;95356.14;1787096;80;21126;-59
2021/07/17 05:20:12;;;;;;;10.55;7.33;;;;;;;20.18;80.81;95354.04;1786845;80;21046;-59
2021/07/17 05:22:39;;;;;;;18.52;7.80;;;;;;;20.20;80.63;95342.28;1787137;80;21011;-59
2021/07/17 05:25:08;;;;;;;13.45;7.37;;;;;;;20.29;80.54;95346.23;1787200;80;21026;-59
2021/07/17 05:27:34;;;;;;;9.75;7.15;;;;;;;20.35;80.07;95351.69;1787225;80;21014;-59
2021/07/17 05:30:03;;;;;;;11.45;7.15;;;;;;;20.53;80.63;95349.21;1786874;80;21531;-59
2021/07/17 05:32:30;;;;;;;14.60;7.70;;;;;;;20.61;80.30;95348.77;1787208;80;21540;-59
2021/07/17 05:34:56;;;;;;;12.25;7.35;;;;;;;20.67;79.26;95350.60;1786820;80;21046;-59
2021/07/17 05:37:24;;;;;;;11.45;7.58;;;;;;;20.63;78.78;95348.20;1787180;80;21027;-59
2021/07/17 05:39:51;;;;;;;11.68;6.78;;;;;;;20.67;79.14;95361.81;1786875;80;21512;-59
2021/07/17 05:42:17;;;;;;;12.25;7.15;;;;;;;20.67;78.94;95361.32;1787433;80;20995;-59
2021/07/17 05:44:44;;;;;;;11.57;7.03;;;;;;;20.71;78.79;95371.36;1787103;80;21524;-59
2021/07/17 05:47:10;;;;;;;11.73;7.35;;;;;;;20.78;78.45;95362.47;1787050;80;21075;-59
2021/07/17 05:49:36;;;;;;;8.80;6.60;;;;;;;20.81;78.31;95364.95;1787166;80;21485;-59
2021/07/17 05:52:04;;;;;;;11.03;7.00;;;;;;;20.91;78.72;95362.93;1786989;80;21022;-59
2021/07/17 05:54:31;;;;;;;11.38;7.92;;;;;;;20.92;77.81;95359.31;1787288;80;21485;-59
2021/07/17 05:56:58;;;;;;;11.12;7.53;;;;;;;20.92;77.99;95355.28;1786973;80;21007;-59
2021/07/17 05:59:25;;;;;;;10.72;7.10;;;;;;;20.89;77.87;95355.48;1786755;80;21010;-59
2021/07/17 06:01:51;;;;;;;10.03;7.37;;;;;;;20.89;78.26;95356.83;1787103;80;21019;-59
2021/07/17 06:04:18;;;;;;;11.55;7.85;;;;;;;20.88;78.12;95359.59;1787033;80;21066;-59
2021/07/17 06:06:44;;;;;;;9.10;8.00;;;;;;;20.92;78.50;95362.48;1787191;80;20972;-59
2021/07/17 06:09:10;;;;;;;10.75;7.97;;;;;;;21.01;78.64;95359.19;1787090;80;21007;-59
2021/07/17 06:11:37;;;;;;;12.37;8.23;;;;;;;21.09;78.51;95364.06;1787301;80;21034;-59
2021/07/17 06:14:03;;;;;;;11.03;7.92;;;;;;;21.21;78.49;95365.11;1787014;80;21066;-60
2021/07/17 06:16:30;;;;;;;15.70;8.45;;;;;;;21.28;78.24;95363.28;1786862;80;21425;-59
2021/07/17 06:18:56;;;;;;;12.00;8.18;;;;;;;21.33;77.53;95369.70;1795233;80;21085;-59
2021/07/17 06:21:24;;;;;;;12.98;8.53;;;;;;;21.32;77.02;95371.52;1795509;80;20994;-59
2021/07/17 06:23:51;;;;;;;10.08;7.95;;;;;;;21.38;76.17;95368.46;1795523;80;21011;-59
2021/07/17 06:26:17;;;;;;;13.20;8.88;;;;;;;21.43;76.32;95368.17;1794991;80;21011;-59
2021/07/17 06:28:44;;;;;;;12.50;8.25;;;;;;;21.51;76.29;95369.86;1795480;80;21104;-59
2021/07/17 06:31:10;;;;;;;10.10;6.92;;;;;;;21.61;76.34;95368.78;1795384;80;21003;-59
2021/07/17 06:33:37;;;;;;;11.03;7.67;;;;;;;21.75;75.60;95377.29;1795077;80;21102;-59
2021/07/17 06:36:04;;;;;;;10.15;6.87;;;;;;;21.88;75.96;95376.84;1795728;80;21026;-59
2021/07/17 06:38:30;;;;;;;11.43;7.42;;;;;;;22.00;75.30;95373.34;1795258;80;21532;-59
2021/07/17 06:40:57;;;;;;;10.82;7.00;;;;;;;22.12;74.91;95369.43;1795453;80;21003;-59
2021/07/17 06:43:23;;;;;;;8.15;6.85;;;;;;;22.30;75.83;95364.20;1795494;80;21042;-59
2021/07/17 06:45:49;;;;;;;8.58;7.15;;;;;;;22.41;74.29;95363.45;1795503;80;21014;-59
2021/07/17 06:48:16;;;;;;;8.90;6.92;;;;;;;22.50;74.33;95372.69;1795218;80;21005;-59
2021/07/17 06:50:43;;;;;;;13.55;6.92;;;;;;;22.63;73.96;95374.44;1795768;80;20974;-59
2021/07/17 06:53:09;;;;;;;11.57;6.60;;;;;;;22.75;73.32;95379.42;1795320;80;20975;-59
2021/07/17 06:55:39;;;;;;;11.70;7.78;;;;;;;22.81;71.46;95380.36;1795424;80;21066;-59
2021/07/17 06:58:05;;;;;;;11.90;7.45;;;;;;;22.82;71.49;95380.72;1795387;80;21011;-59
2021/07/17 07:00:34;;;;;;;9.88;7.40;;;;;;;22.98;72.12;95389.08;1794939;80;20998;-59
2021/07/17 07:03:01;;;;;;;12.05;7.87;;;;;;;23.15;72.03;95382.02;1795246;80;21069;-59
2021/07/17 07:05:27;;;;;;;10.15;7.60;;;;;;;23.30;71.59;95380.91;1795404;80;21480;-59
2021/07/17 07:07:55;;;;;;;11.73;8.10;;;;;;;23.47;72.01;95378.83;1795393;80;21013;-59
2021/07/17 07:10:21;;;;;;;13.28;8.50;;;;;;;23.62;71.72;95383.58;1795623;80;21468;-59
2021/07/17 07:12:49;;;;;;;14.83;8.25;;;;;;;23.79;71.86;95383.69;1795523;80;20994;-59
2021/07/17 07:15:17;;;;;;;11.78;8.60;;;;;;;23.90;71.17;95377.89;1795344;80;20995;-59
2021/07/17 07:17:44;;;;;;;13.55;8.10;;;;;;;23.98;72.05;95369.22;1792236;80;21050;-59
2021/07/17 07:20:13;;;;;;;15.03;7.83;;;;;;;24.10;70.47;95377.73;1786711;80;21142;-59
2021/07/17 07:22:40;;;;;;;9.03;7.67;;;;;;;24.08;69.60;95369.39;1787078;80;20998;-59
2021/07/17 07:25:09;;;;;;;13.70;7.65;;;;;;;24.12;70.38;95369.55;1786783;80;21042;-59
2021/07/17 07:27:38;;;;;;;10.30;7.62;;;;;;;24.17;70.00;95371.41;1787080;80;21018;-59
2021/07/17 07:30:06;;;;;;;11.68;7.83;;;;;;;24.21;69.80;95373.36;1786901;80;21480;-60
2021/07/17 07:32:33;;;;;;;12.88;7.83;;;;;;;24.24;69.35;95377.17;1787067;80;21039;-59
2021/07/17 07:35:00;;;;;;;13.83;8.48;;;;;;;24.25;69.98;95377.56;1786755;80;21027;-63
2021/07/17 07:37:27;;;;;;;10.30;8.25;;;;;;;24.14;69.07;95377.00;1786872;80;21055;-59
2021/07/17 07:39:56;;;;;;;10.30;7.70;;;;;;;24.10;70.06;95371.00;1787304;80;20983;-59
2021/07/17 07:42:24;;;;;;;12.37;7.92;;;;;;;24.08;70.29;95371.59;1787212;80;20999;-59
2021/07/17 07:44:52;;;;;;;11.88;8.55;;;;;;;24.07;69.74;95367.19;1786711;80;20939;-59
2021/07/17 07:47:19;;;;;;;13.88;10.03;;;;;;;24.11;70.42;95370.50;1787191;80;21007;-59
2021/07/17 07:49:46;;;;;;;13.22;7.47;;;;;;;24.22;70.69;95372.38;1787173;80;21790;-59
2021/07/17 07:52:13;;;;;;;17.37;8.78;;;;;;;24.33;70.45;95375.98;1787309;80;20999;-59
2021/07/17 07:54:41;;;;;;;21.30;7.62;;;;;;;24.41;70.37;95370.84;1787406;80;21011;-59
2021/07/17 07:57:08;;;;;;;12.80;7.15;;;;;;;24.49;70.30;95371.64;1787357;80;20979;-59
2021/07/17 07:59:35;;;;;;;11.45;6.42;;;;;;;24.58;69.72;95372.78;1786944;80;20979;-59
2021/07/17 08:02:02;;;;;;;13.32;7.10;;;;;;;24.55;68.65;95374.37;1786933;80;21502;-59
2021/07/17 08:04:30;;;;;;;11.28;6.53;;;;;;;24.53;68.83;95377.67;1787178;80;20975;-59
2021/07/17 08:06:57;;;;;;;12.75;7.35;;;;;;;24.53;68.61;95382.57;1786641;80;21516;-59
2021/07/17 08:09:23;;;;;;;12.68;7.22;;;;;;;24.59;69.08;95382.11;1786934;80;21029;-59
2021/07/17 08:11:50;;;;;;;9.73;6.67;;;;;;;24.77;69.65;95381.63;1787162;80;21003;-59
2021/07/17 08:14:16;;;;;;;15.90;7.17;;;;;;;24.86;68.29;95378.72;1786913;80;21034;-59
2021/07/17 08:16:43;;;;;;;10.55;7.58;;;;;;;24.96;69.25;95377.00;1787005;80;21015;-59
2021/07/17 08:19:10;;;;;;;10.68;7.70;;;;;;;25.16;69.69;95376.77;1794027;80;21048;-59
2021/07/17 08:21:37;;;;;;;13.90;7.85;;;;;;;25.29;68.81;95369.92;1795565;80;21543;-59
2021/07/17 08:24:06;;;;;;;14.75;8.80;;;;;;;25.36;67.65;95377.91;1795716;80;21034;-59
2021/07/17 08:26:35;;;;;;;9.00;7.58;;;;;;;25.51;69.11;95377.16;1795546;80;20998;-59
2021/07/17 08:29:02;;;;;;;14.80;8.45;;;;;;;25.66;69.55;95377.25;1795245;80;21030;-59
2021/07/17 08:31:29;;;;;;;12.20;7.42;;;;;;;25.77;67.90;95380.41;1795267;80;21084;-59
2021/07/17 08:33:55;;;;;;;11.93;7.25;;;;;;;25.79;67.40;95385.20;1795803;80;20955;-59
2021/07/17 08:36:23;;;;;;;13.05;8.05;;;;;;;25.84;67.33;95388.39;1795730;80;21034;-59
2021/07/17 08:38:49;;;;;;;10.58;6.95;;;;;;;25.71;66.29;95383.14;1795256;80;21011;-59
2021/07/17 08:41:21;;;;;;;13.40;7.92;;;;;;;25.71;67.35;95380.44;1795707;80;21041;-59
2021/07/17 08:43:53;;;;;;;11.05;8.13;;;;;;;25.95;67.58;95380.77;1795758;80;21054;-59
2021/07/17 08:46:22;;;;;;;10.03;7.83;;;;;;;26.12;67.47;95372.11;1795583;80;20990;-59
2021/07/17 08:48:51;;;;;;;16.12;8.50;;;;;;;26.20;66.30;95381.78;1795298;80;21061;-59
2021/07/17 08:51:19;;;;;;;10.72;7.62;;;;;;;26.33;66.25;95373.48;1764704;80;21480;-59
2021/07/17 08:53:46;;;;;;;13.58;8.18;;;;;;;26.46;65.48;95371.95;1795447;80;20963;-59
2021/07/17 08:56:15;;;;;;;8.73;7.72;;;;;;;26.60;66.25;95375.72;1795660;80;21007;-59
2021/07/17 08:58:41;;;;;;;9.53;7.50;;;;;;;26.74;64.59;95371.84;1795500;80;21086;-59
2021/07/17 09:01:09;;;;;;;8.68;6.95;;;;;;;26.76;64.90;95370.72;1795274;80;21026;-59
2021/07/17 09:03:35;;;;;;;11.50;7.60;;;;;;;26.78;63.53;95373.27;1795740;80;21512;-59
2021/07/17 09:06:02;;;;;;;11.50;7.75;;;;;;;26.67;63.83;95378.27;1795237;80;21046;-59
2021/07/17 09:08:29;;;;;;;11.65;7.53;;;;;;;26.81;65.50;95371.65;1795152;80;21089;-59
2021/07/17 09:10:56;;;;;;;15.15;7.97;;;;;;;26.94;64.30;95370.11;1795559;80;20975;-59
2021/07/17 09:13:32;;;;;;;12.65;7.58;;;;;;;27.08;63.60;95368.89;1795246;80;20995;-59
2021/07/17 09:16:09;;;;;;;12.05;7.33;;;;;;;27.28;63.37;95365.81;1795462;80;21476;-59
2021/07/17 09:18:53;;;;;;;13.35;8.70;;;;;;;27.41;63.57;95367.78;1791036;80;20983;-59
2021/07/17 09:21:37;;;;;;;10.68;7.70;;;;;;;27.48;63.33;95372.16;1787121;80;21023;-59
2021/07/17 09:24:09;;;;;;;10.10;7.67;;;;;;;27.47;62.52;95365.01;1787256;80;20960;-59
2021/07/17 09:26:40;;;;;;;12.07;8.35;;;;;;;27.47;63.09;95368.59;1786811;80;21524;-60
2021/07/17 09:29:12;;;;;;;11.20;7.40;;;;;;;27.46;63.42;95360.59;1787218;80;21372;-59
2021/07/17 09:31:58;;;;;;;9.00;7.53;;;;;;;27.36;62.28;95367.33;1786980;80;21521;-59
2021/07/17 09:34:30;;;;;;;13.18;8.78;;;;;;;27.25;62.11;95363.38;1787011;80;21002;-60
2021/07/17 09:37:09;;;;;;;13.95;8.15;;;;;;;27.21;63.19;95357.36;1786679;80;21046;-59
2021/07/17 09:39:46;;;;;;;11.50;7.50;;;;;;;27.40;64.72;95366.92;1787239;80;21465;-59
2021/07/17 09:42:18;;;;;;;12.53;7.78;;;;;;;27.59;62.68;95366.63;1787032;80;21019;-59
2021/07/17 09:44:50;;;;;;;12.00;7.42;;;;;;;27.81;63.32;95365.55;1786458;80;21027;-59
2021/07/17 09:47:21;;;;;;;11.50;7.67;;;;;;;28.05;63.54;95359.78;1787042;80;20987;-59
2021/07/17 09:49:48;;;;;;;12.93;7.33;;;;;;;28.18;60.72;95354.92;1786843;80;21568;-59
2021/07/17 09:52:20;;;;;;;8.13;6.87;;;;;;;28.35;62.04;95359.27;1786837;80;21063;-59
2021/07/17 09:55:16;;;;;;;7.65;6.20;;;;;;;28.59;61.69;95360.23;1787127;80;21528;-60
2021/07/17 09:57:40;;;;;;;15.08;7.35;;;;;;;28.68;57.52;95349.36;1785075;80;21038;-59
2021/07/17 10:00:13;;;;;;;10.45;7.08;;;;;;;28.83;60.01;95354.34;1786831;80;21162;-59
2021/07/17 10:02:40;;;;;;;;;;;;;;;28.97;60.04;95352.50;1789614;80;20975;-59
2021/07/17 10:05:12;;;;;;;12.30;7.45;;;;;;;29.07;57.69;95352.51;1755843;81;20114;-59
2021/07/17 10:07:39;;;;;;;11.63;6.42;;;;;;;29.03;57.23;95350.57;1787201;80;21034;-59
2021/07/17 10:10:06;;;;;;;8.90;6.08;;;;;;;29.03;56.42;95353.28;1787172;80;20984;-59
2021/07/17 10:12:37;;;;;;;12.93;6.50;;;;;;;28.99;56.05;95349.14;1787329;80;21508;-59
2021/07/17 10:15:07;;;;;;;8.33;6.15;;;;;;;29.02;54.23;95350.20;1787002;80;21066;-60
2021/07/17 10:17:38;;;;;;;9.10;5.28;;;;;;;28.65;53.90;95341.52;1785331;80;21550;-59
2021/07/17 10:20:08;;;;;;;9.40;5.70;;;;;;;28.44;54.63;95344.84;1764127;81;21045;-60
2021/07/17 10:22:37;;;;;;;6.17;4.92;;;;;;;28.66;54.16;95341.85;1764165;81;21007;-59
2021/07/17 10:25:09;;;;;;;11.97;4.70;;;;;;;28.89;50.76;95332.87;1764064;81;20979;-59
2021/07/17 10:27:37;;;;;;;8.25;5.00;;;;;;;29.09;53.02;95341.84;1764161;81;20964;-59
2021/07/17 10:30:07;;;;;;;8.83;4.78;;;;;;;29.37;51.30;95336.95;1764508;81;21003;-60
2021/07/17 10:32:34;;;;;;;8.43;4.47;;;;;;;29.51;51.59;95336.47;1764208;81;21003;-59
2021/07/17 10:35:01;;;;;;;11.35;4.65;;;;;;;29.55;50.83;95334.63;1764138;81;21015;-59
2021/07/17 10:37:31;;;;;;;7.95;4.40;;;;;;;29.64;49.84;95335.61;1763839;81;21019;-61
2021/07/17 10:40:16;;;;;;;8.98;4.83;;;;;;;29.68;49.51;95335.66;1764226;81;21054;-60
2021/07/17 10:42:53;;;;;;;7.40;4.80;;;;;;;29.90;51.16;95334.39;1764212;81;21014;-59
2021/07/17 10:45:35;;;;;;;7.00;4.60;;;;;;;29.87;47.89;95327.05;1744883;81;21010;-59
2021/07/17 10:48:06;;;;;;;8.20;4.87;;;;;;;30.05;50.88;95332.00;1762736;80;21007;-59
2021/07/17 10:50:37;;;;;;;9.03;5.08;;;;;;;30.22;49.03;95328.09;1758225;81;21023;-60
2021/07/17 10:53:04;;;;;;;9.70;4.47;;;;;;;30.25;46.61;95329.17;1764023;81;21053;-59
2021/07/17 10:55:36;;;;;;;10.13;4.45;;;;;;;30.34;48.27;95331.81;1763882;81;21022;-59
2021/07/17 10:58:17;;;;;;;13.38;4.35;;;;;;;30.47;47.95;95331.41;1764315;81;21461;-59
2021/07/17 11:00:50;;;;;;;10.75;4.50;;;;;;;30.66;47.33;95327.64;1763917;81;21026;-60
2021/07/17 11:03:25;;;;;;;10.70;4.00;;;;;;;30.50;40.31;95323.44;1764205;81;21054;-60
2021/07/17 11:05:52;;;;;;;6.67;4.20;;;;;;;30.22;44.40;95325.38;1764248;81;20976;-60
2021/07/17 11:08:38;;;;;;;11.00;4.90;;;;;;;30.07;45.57;95325.91;1764312;81;21464;-60
2021/07/17 11:11:31;;;;;;;8.55;4.60;;;;;;;30.20;48.95;95322.80;1764147;81;21060;-59
2021/07/17 11:14:09;;;;;;;12.40;4.58;;;;;;;30.24;45.92;95320.16;1762329;81;21038;-59
2021/07/17 11:16:44;;;;;;;6.47;4.40;;;;;;;30.40;46.83;95327.09;1762820;81;21493;-60
2021/07/17 11:19:24;;;;;;;7.22;4.50;;;;;;;30.43;46.51;95328.64;1780260;80;21481;-59
2021/07/17 11:21:53;;;;;;;9.35;4.97;;;;;;;30.51;47.08;95315.61;1795308;80;20978;-59
2021/07/17 11:24:25;;;;;;;12.53;4.47;;;;;;;30.69;47.48;95315.57;1795439;80;20978;-60
2021/07/17 11:27:16;;;;;;;;;;;;;;;30.73;44.63;95312.89;1797994;80;21037;-60
2021/07/17 11:29:46;;;;;;;11.08;5.30;;;;;;;30.74;44.88;95310.50;1764261;81;20134;-59
2021/07/17 11:32:17;;;;;;;12.25;4.75;;;;;;;30.96;45.38;95306.43;1795243;80;21014;-60
2021/07/17 11:34:52;;;;;;;8.05;4.65;;;;;;;31.12;47.20;95309.27;1795118;80;21006;-60